• Join FlightAware (Why Join?)
  • Login
  • US Flag 
02:03PM EDT


 

Airport Tracker/Info


-or-


 

Live Flight TrackerFlight Track Log ✈ SWA1035 ✈ 06-May-2013 ✈ KMHT - KTPA

Flight Track Log - Related Links

Times and Time Zones

All times are in EDT time to prevent confusion due to time zone crossing. See the SWA1035 flight status page for this flight to view local times or setup timezone preferences in your user account.

Time Position Orientation Groundspeed Altitude Reporting Facility
EDT Latitude Longitude Course Direction KTS MPH feet Rate Location/Type
07:08AM 42.9500 -71.4167 20° North 155 178 1,100  Level KA90
07:09AM 42.9833 -71.4000 20° North 209 241 3,000 3,060 Climbing KA90
07:11AM 43.0303 -71.2869 60° Northeast 221 254 9,500 3,120 Climbing Boston Center
07:12AM 43.0500 -71.1786 76° East 240 276 11,900 3,120 Climbing Boston Center
07:13AM 43.0361 -71.0767 101° East 293 337 15,800 3,480 Climbing Boston Center
07:14AM 42.9603 -70.9989 143° Southeast 286 329 18,900 2,640 Climbing Boston Center
07:15AM 42.8700 -70.9583 162° South 324 373 21,100 2,580 Climbing Boston Center
07:16AM 42.7686 -70.9978 196° South 328 377 24,100 2,400 Climbing Boston Center
07:17AM 42.6819 -71.0872 217° Southwest 346 398 26,000 1,800 Climbing Boston Center
07:18AM 42.6128 -71.2186 234° Southwest 388 447 27,800 1,680 Climbing Boston Center
07:19AM 42.5369 -71.3581 234° Southwest 418 481 29,400 1,500 Climbing Boston Center
07:20AM 42.4592 -71.5031 234° Southwest 459 528 30,900 1,800 Climbing Boston Center
07:21AM 42.3725 -71.6475 231° Southwest 490 564 33,100 2,280 Climbing Boston Center
07:22AM 42.2944 -71.7889 233° Southwest 490 564 35,500 2,100 Climbing Boston Center
07:23AM 42.2181 -71.9272 233° Southwest 484 557 37,300 1,620 Climbing Boston Center
07:24AM 42.1433 -72.0650 234° Southwest 474 545 38,800 1,320 Climbing Boston Center
07:25AM 42.0689 -72.2025 234° Southwest 469 540 40,000 600 Climbing Boston Center
07:26AM 41.9939 -72.3311 232° Southwest 458 527 40,000  Level Boston Center
07:27AM 41.9211 -72.4653 234° Southwest 453 521 40,000  Level Boston Center
07:28AM 41.8458 -72.5961 232° Southwest 453 521 40,000  Level Boston Center
07:29AM 41.7728 -72.7294 234° Southwest 453 521 40,000  Level Boston Center
07:30AM 41.6972 -72.8600 232° Southwest 453 521 40,000  Level Boston Center
07:31AM 41.6217 -72.9900 232° Southwest 453 521 40,000  Level Boston Center
07:32AM 41.5500 -73.1197 234° Southwest 453 521 40,000  Level Boston Center
07:33AM 41.4869 -73.2269 232° Southwest 440 506 40,000  Level Boston Center
07:34AM 41.4172 -73.3536 234° Southwest 435 501 40,000  Level Boston Center
07:35AM 41.3431 -73.4825 233° Southwest 435 501 40,000  Level Boston Center
07:37AM 41.1736 -73.7703 232° Southwest 433 498 40,000  Level New York Center
07:38AM 41.0994 -73.8908 231° Southwest 433 498 40,000  Level New York Center
07:39AM 41.0233 -74.0164 231° Southwest 433 498 40,000  Level New York Center
07:40AM 40.9531 -74.1394 233° Southwest 433 498 40,000  Level New York Center
07:41AM 40.8856 -74.2431 229° Southwest 433 498 40,000  Level New York Center
07:42AM 40.8131 -74.3656 232° Southwest 433 498 40,000  Level New York Center
07:43AM 40.7386 -74.4847 231° Southwest 433 498 40,000  Level New York Center
07:44AM 40.6661 -74.6039 231° Southwest 428 493 40,000  Level New York Center
07:45AM 40.5933 -74.7256 232° Southwest 428 493 40,000  Level New York Center
07:46AM 40.5122 -74.8439 228° Southwest 433 498 40,000  Level New York Center
07:47AM 40.4311 -74.9564 227° Southwest 440 506 40,000  Level New York Center
07:48AM 40.3519 -75.0714 228° Southwest 440 506 40,000  Level New York Center
07:49AM 40.2706 -75.1858 227° Southwest 435 501 40,000  Level New York Center
07:50AM 40.1869 -75.3028 227° Southwest 435 501 40,000  Level New York Center
07:51AM 40.1053 -75.4169 227° Southwest 435 501 40,000  Level New York Center
07:52AM 40.0239 -75.5281 226° Southwest 435 501 40,000  Level New York Center
07:53AM 39.9439 -75.6444 228° Southwest 430 495 40,000  Level New York Center
07:54AM 39.8642 -75.7608 228° Southwest 430 495 40,000  Level New York Center
07:55AM 39.7881 -75.8797 230° Southwest 430 495 40,000  Level New York Center
07:57AM 39.6247 -76.1464 232° Southwest 436 502 40,000  Level Washington Center
07:58AM 39.5431 -76.2697 229° Southwest 441 507 40,000  Level Washington Center
07:59AM 39.4650 -76.3872 229° Southwest 441 507 40,000  Level Washington Center
08:00AM 39.3892 -76.5072 231° Southwest 441 507 40,000  Level Washington Center
08:01AM 39.3092 -76.6269 229° Southwest 446 513 40,000  Level Washington Center
08:03AM 39.1939 -76.8008 229° Southwest  Level FlightAware Approximate
08:03AM 39.1567 -76.8631 229° Southwest 446 513 40,000  Level Washington Center
08:04AM 39.0803 -76.9847 231° Southwest 441 507 40,000  Level Washington Center
08:05AM 38.9958 -77.0925 225° Southwest 436 502 40,000  Level Washington Center
08:07AM 38.8181 -77.2861 220° Southwest 424 488 40,000  Level Washington Center
08:08AM 38.7269 -77.3853 220° Southwest 424 488 40,000  Level Washington Center
08:09AM 38.6464 -77.4708 220° Southwest 429 494 40,000  Level Washington Center
08:10AM 38.5572 -77.5697 221° Southwest 429 494 40,000  Level Washington Center
08:11AM 38.4722 -77.6656 221° Southwest 424 488 40,000  Level Washington Center
08:12AM 38.3853 -77.7583 220° Southwest 424 488 40,000  Level Washington Center
08:13AM 38.2981 -77.8511 220° Southwest 417 480 40,000  Level Washington Center
08:14AM 38.2128 -77.9411 220° Southwest 412 474 40,000  Level Washington Center
08:15AM 38.1275 -78.0333 220° Southwest 412 474 40,000  Level Washington Center
08:17AM 37.9528 -78.2175 220° Southwest 401 461 40,000  Level Washington Center
08:18AM 37.8717 -78.2908 216° Southwest 401 461 40,000  Level Washington Center
08:19AM 37.7822 -78.3769 217° Southwest 401 461 40,000  Level Washington Center
08:21AM 37.6050 -78.5461 217° Southwest 401 461 40,000  Level Washington Center
08:22AM 37.5047 -78.6392 216° Southwest 406 467 40,000  Level Washington Center
08:23AM 37.4128 -78.7242 216° Southwest 406 467 40,000  Level Washington Center
08:24AM 37.3208 -78.8094 216° Southwest 411 473 40,000  Level Washington Center
08:26AM 37.1369 -78.9761 216° Southwest 416 479 40,000  Level Washington Center
08:27AM 37.0444 -79.0658 218° Southwest 416 479 40,000  Level Washington Center
08:28AM 36.9589 -79.1400 215° Southwest 416 479 40,000  Level Washington Center
08:29AM 36.8686 -79.2292 218° Southwest 416 479 40,000  Level Washington Center
08:30AM 36.7742 -79.3131 215° Southwest 416 479 40,000  Level Washington Center
08:31AM 36.6839 -79.3992 217° Southwest 416 479 40,000  Level Washington Center
08:33AM 36.5342 -79.5201 215° Southwest  Level FlightAware Approximate
08:33AM 36.4556 -79.5992 215° Southwest 418 481 40,000  Level Atlanta Center
08:34AM 36.3625 -79.6817 216° Southwest 405 466 40,000  Level Atlanta Center
08:35AM 36.2719 -79.7714 219° Southwest 413 475 40,000  Level Atlanta Center
08:36AM 36.1786 -79.8511 215° Southwest 419 482 40,000  Level Atlanta Center
08:37AM 36.0897 -79.9328 217° Southwest 419 482 40,000  Level Atlanta Center
08:38AM 36.0042 -79.9961 211° Southwest 414 476 40,000  Level Atlanta Center
08:39AM 35.8956 -80.0503 202° Southwest 409 471 40,000  Level Atlanta Center
08:40AM 35.7928 -80.1014 202° Southwest 409 471 40,000  Level Atlanta Center
08:41AM 35.6881 -80.1550 203° Southwest 409 471 40,000  Level Atlanta Center
08:42AM 35.5833 -80.2108 203° Southwest 409 471 40,000  Level Atlanta Center
08:43AM 35.4808 -80.2617 202° Southwest 409 471 40,000  Level Atlanta Center
08:46AM 35.2114 -80.3928 202° Southwest 410 472 40,000  Level Jacksonville Center
08:47AM 35.1081 -80.4467 203° Southwest 410 472 40,000  Level Jacksonville Center
08:49AM 34.9241 -80.5317 201° Southwest  Level FlightAware Approximate
08:50AM 34.8086 -80.5942 201° Southwest 405 466 40,000  Level Jacksonville Center
08:51AM 34.7008 -80.6450 201° Southwest 405 466 40,000  Level Jacksonville Center
08:52AM 34.5894 -80.7008 202° Southwest 417 480 40,000  Level Jacksonville Center
08:53AM 34.4839 -80.7539 203° Southwest 422 486 40,000  Level Jacksonville Center
08:54AM 34.3764 -80.8094 203° Southwest 422 486 40,000  Level Jacksonville Center
08:55AM 34.2747 -80.8572 201° Southwest 415 478 40,000  Level Jacksonville Center
08:56AM 34.1672 -80.9075 201° Southwest 415 478 40,000  Level Jacksonville Center
08:57AM 34.0594 -80.9600 202° Southwest 420 483 40,000  Level Jacksonville Center
08:58AM 33.9539 -81.0097 201° Southwest 420 483 40,000  Level Jacksonville Center
09:00AM 33.7383 -81.1169 202° Southwest 415 478 40,000  Level Jacksonville Center
09:01AM 33.6283 -81.1689 201° Southwest 415 478 40,000  Level Jacksonville Center
09:02AM 33.5228 -81.2233 203° Southwest 415 478 40,000  Level Jacksonville Center
09:03AM 33.4169 -81.2750 202° Southwest 415 478 40,000  Level Jacksonville Center
09:04AM 33.3092 -81.3267 202° Southwest 415 478 40,000  Level Jacksonville Center
09:05AM 33.2011 -81.3783 202° Southwest 415 478 40,000  Level Jacksonville Center
09:06AM 33.0953 -81.4322 203° Southwest 415 478 40,000  Level Jacksonville Center
09:07AM 32.9853 -81.4858 202° Southwest 415 478 40,000  Level Jacksonville Center
09:08AM 32.8817 -81.5369 203° Southwest 415 478 40,000  Level Jacksonville Center
09:10AM 32.6697 -81.6389 202° Southwest 415 478 40,000  Level Jacksonville Center
09:11AM 32.5533 -81.6922 201° Southwest 415 478 40,000  Level Jacksonville Center
09:12AM 32.4494 -81.7453 203° Southwest 410 472 40,000  Level Jacksonville Center
09:13AM 32.3414 -81.7933 201° Southwest 410 472 40,000  Level Jacksonville Center
09:15AM 32.1333 -81.8967 203° Southwest 410 472 40,000  Level Jacksonville Center
09:16AM 32.0294 -81.9442 201° Southwest 410 472 40,000  Level Jacksonville Center
09:17AM 31.9233 -81.9917 201° Southwest 410 472 40,000  Level Jacksonville Center
09:19AM 31.7192 -82.0719 198° South 405 466 40,000  Level Jacksonville Center
09:20AM 31.6089 -82.1314 205° Southwest 405 466 40,000  Level Jacksonville Center
09:21AM 31.5300 -82.2100 220° Southwest 385 443 40,000  Level Jacksonville Center
09:23AM 31.3497 -82.2956 194° South  Level FlightAware Approximate
09:25AM 31.1361 -82.3925 198° South 390 449 40,000  Level Jacksonville Center
09:26AM 31.0319 -82.4175 192° South 396 456 39,600 -540 Descending Jacksonville Center
09:28AM 30.8383 -82.4577 190° South  Level FlightAware Approximate
09:29AM 30.7000 -82.4456 190° South 417 480 38,000  Level Jacksonville Center
09:30AM 30.5979 -82.5133 198° South  Level FlightAware Approximate
09:31AM 30.5183 -82.5432 198° South  Level FlightAware Approximate
09:31AM 30.4597 -82.4275 198° South 430 495 37,400  Level Jacksonville Center
09:32AM 30.3450 -82.4183 176° South 430 495 36,400 -960 Descending Jacksonville Center
09:33AM 30.2281 -82.4094 176° South 420 483 35,500 -900 Descending Jacksonville Center
09:34AM 30.1089 -82.4003 176° South 425 489 34,600 -1,500 Descending Jacksonville Center
09:36AM 29.9135 -82.3815 175° South  Level FlightAware Approximate
09:39AM 29.5033 -82.3486 174° South 421 484 26,600  Level Jacksonville Center
09:40AM 29.3925 -82.3347 174° South 410 472 25,600 -1,020 Descending Jacksonville Center
09:41AM 29.2819 -82.3236 175° South 405 466 24,600 -1,800 Descending Jacksonville Center
09:43AM 29.1403 -82.2952 174° South  Level FlightAware Approximate
09:43AM 29.0711 -82.2986 174° South 394 453 20,300  Level Jacksonville Center
09:44AM 29.0299 -82.2829 174° South  Level FlightAware Approximate
09:45AM 28.8831 -82.2761 174° South 383 441 16,100  Level Jacksonville Center
09:46AM 28.7725 -82.2650 175° South 377 434 13,700 -1,620 Descending Jacksonville Center
09:47AM 28.6700 -82.2561 176° South 353 406 12,900 -780 Descending Jacksonville Center
09:48AM 28.5667 -82.2500 177° South 325 374 12,100 -480 Descending Tampa TRACON
09:49AM 28.4833 -82.2500 180° South 322 371 12,000 -60 Descending Tampa TRACON
09:50AM 28.4000 -82.2500 180° South 320 368 12,000 -480 Level Tampa TRACON
09:51AM 28.3167 -82.2833 199° South 314 361 11,200 -960 Descending Tampa TRACON
09:52AM 28.2333 -82.3000 190° South 292 336 10,100 -1,020 Descending Tampa TRACON
09:53AM 28.1667 -82.3500 213° Southwest 261 300 9,100 -1,260 Descending Tampa TRACON
09:55AM 27.9839 -82.3753 187° South  Level FlightAware Approximate
09:56AM 27.9667 -82.4000 187° South 238 274 5,000  Level Tampa TRACON
09:57AM 27.9000 -82.4167 192° South 223 257 5,000 -360 Level Tampa TRACON
09:58AM 27.8500 -82.4333 196° South 225 259 4,300 -780 Descending Tampa TRACON
09:59AM 27.8000 -82.4667 211° Southwest 205 236 3,500 -900 Descending Tampa TRACON
10:00AM 27.8167 -82.5333 286° West 205 236 2,600 -540 Descending Tampa TRACON
10:01AM 27.8667 -82.5500 344° North 165 190 2,500 -660 Descending Tampa TRACON
10:02AM 27.9000 -82.5500 360° North 137 158 1,300 -1,020 Descending Tampa TRACON
10:03AM 27.9333 -82.5500 360° North 133 153 500 -840 Descending Tampa TRACON
10:05AM 27.9667 -82.5167 350° North  Level FlightAware Approximate
10:12AM 27.9755 -82.5332 350° North  Level Estimated
10:13AM 27.9755 -82.5332 350° North  Level Estimated
10:14AM 27.9755 -82.5332 350° North  Level Estimated
10:15AM 27.9755 -82.5332 350° North  Level Estimated
10:16AM 27.9755 -82.5332 350° North  Level Estimated